sensor_id;sensor_type;location;lat;lon;timestamp;temperature;humidity
26035;DHT22;13809;48.632;11.576;2022-07-23T00:01:20;27.10;27.60
26035;DHT22;13809;48.632;11.576;2022-07-23T00:06:28;27.00;28.00
26035;DHT22;13809;48.632;11.576;2022-07-23T00:11:31;27.00;27.90
26035;DHT22;13809;48.632;11.576;2022-07-23T00:16:36;26.90;27.90
26035;DHT22;13809;48.632;11.576;2022-07-23T00:21:39;26.80;28.40
26035;DHT22;13809;48.632;11.576;2022-07-23T00:26:43;26.80;28.40
26035;DHT22;13809;48.632;11.576;2022-07-23T00:31:47;26.70;28.50
26035;DHT22;13809;48.632;11.576;2022-07-23T00:36:50;26.70;29.50
26035;DHT22;13809;48.632;11.576;2022-07-23T00:41:55;26.60;29.00
26035;DHT22;13809;48.632;11.576;2022-07-23T00:47:00;26.60;29.50
26035;DHT22;13809;48.632;11.576;2022-07-23T00:52:03;26.50;29.50
26035;DHT22;13809;48.632;11.576;2022-07-23T00:57:08;26.40;29.40
26035;DHT22;13809;48.632;11.576;2022-07-23T01:02:14;26.30;29.40
26035;DHT22;13809;48.632;11.576;2022-07-23T01:07:18;26.30;29.90
26035;DHT22;13809;48.632;11.576;2022-07-23T01:12:22;26.20;29.90
26035;DHT22;13809;48.632;11.576;2022-07-23T01:17:26;26.10;29.70
26035;DHT22;13809;48.632;11.576;2022-07-23T01:22:31;26.00;30.30
26035;DHT22;13809;48.632;11.576;2022-07-23T01:27:34;25.90;31.60
26035;DHT22;13809;48.632;11.576;2022-07-23T01:32:38;25.80;31.80
26035;DHT22;13809;48.632;11.576;2022-07-23T01:37:43;25.40;32.00
26035;DHT22;13809;48.632;11.576;2022-07-23T01:42:46;24.70;30.30
26035;DHT22;13809;48.632;11.576;2022-07-23T01:47:49;24.60;33.90
26035;DHT22;13809;48.632;11.576;2022-07-23T01:52:54;24.40;34.30
26035;DHT22;13809;48.632;11.576;2022-07-23T01:57:57;24.20;35.20
26035;DHT22;13809;48.632;11.576;2022-07-23T02:03:00;24.20;34.20
26035;DHT22;13809;48.632;11.576;2022-07-23T02:08:05;24.10;34.30
26035;DHT22;13809;48.632;11.576;2022-07-23T02:13:08;24.10;34.70
26035;DHT22;13809;48.632;11.576;2022-07-23T02:18:19;24.00;34.20
26035;DHT22;13809;48.632;11.576;2022-07-23T02:23:23;23.90;34.00
26035;DHT22;13809;48.632;11.576;2022-07-23T02:28:27;23.80;34.80
26035;DHT22;13809;48.632;11.576;2022-07-23T02:33:30;23.70;34.70
26035;DHT22;13809;48.632;11.576;2022-07-23T02:38:34;23.50;35.10
26035;DHT22;13809;48.632;11.576;2022-07-23T02:43:38;23.40;36.60
26035;DHT22;13809;48.632;11.576;2022-07-23T02:48:41;23.30;36.80
26035;DHT22;13809;48.632;11.576;2022-07-23T02:53:45;23.20;36.40
26035;DHT22;13809;48.632;11.576;2022-07-23T02:58:48;23.00;37.30
26035;DHT22;13809;48.632;11.576;2022-07-23T03:03:52;23.00;36.70
26035;DHT22;13809;48.632;11.576;2022-07-23T03:08:56;23.10;36.70
26035;DHT22;13809;48.632;11.576;2022-07-23T03:14:00;23.20;37.90
26035;DHT22;13809;48.632;11.576;2022-07-23T03:19:03;23.20;36.80
26035;DHT22;13809;48.632;11.576;2022-07-23T03:24:09;23.30;36.50
26035;DHT22;13809;48.632;11.576;2022-07-23T03:29:12;23.30;38.20
26035;DHT22;13809;48.632;11.576;2022-07-23T03:34:15;23.40;37.10
26035;DHT22;13809;48.632;11.576;2022-07-23T03:39:21;23.30;36.80
26035;DHT22;13809;48.632;11.576;2022-07-23T03:44:24;23.20;37.80
26035;DHT22;13809;48.632;11.576;2022-07-23T03:49:28;23.10;37.30
26035;DHT22;13809;48.632;11.576;2022-07-23T03:54:32;23.00;37.50
26035;DHT22;13809;48.632;11.576;2022-07-23T03:59:36;23.00;38.30
26035;DHT22;13809;48.632;11.576;2022-07-23T04:04:39;23.10;37.90
26035;DHT22;13809;48.632;11.576;2022-07-23T04:09:43;23.10;37.90
26035;DHT22;13809;48.632;11.576;2022-07-23T04:14:47;23.10;38.80
26035;DHT22;13809;48.632;11.576;2022-07-23T04:19:50;23.00;38.00
26035;DHT22;13809;48.632;11.576;2022-07-23T04:24:55;23.00;38.20
26035;DHT22;13809;48.632;11.576;2022-07-23T04:29:58;23.00;39.10
26035;DHT22;13809;48.632;11.576;2022-07-23T04:35:01;23.00;38.20
26035;DHT22;13809;48.632;11.576;2022-07-23T04:40:07;23.00;38.60
26035;DHT22;13809;48.632;11.576;2022-07-23T04:45:11;23.00;39.10
26035;DHT22;13809;48.632;11.576;2022-07-23T04:50:14;23.00;39.10
26035;DHT22;13809;48.632;11.576;2022-07-23T04:55:24;23.00;38.90
26035;DHT22;13809;48.632;11.576;2022-07-23T05:00:27;22.80;39.50
26035;DHT22;13809;48.632;11.576;2022-07-23T05:05:31;22.70;38.90
26035;DHT22;13809;48.632;11.576;2022-07-23T05:10:35;22.60;39.50
26035;DHT22;13809;48.632;11.576;2022-07-23T05:15:38;22.60;40.60
26035;DHT22;13809;48.632;11.576;2022-07-23T05:20:42;22.60;40.00
26035;DHT22;13809;48.632;11.576;2022-07-23T05:25:46;22.60;40.00
26035;DHT22;13809;48.632;11.576;2022-07-23T05:30:49;22.60;40.80
26035;DHT22;13809;48.632;11.576;2022-07-23T05:35:53;22.70;40.40
26035;DHT22;13809;48.632;11.576;2022-07-23T05:40:58;22.80;40.40
26035;DHT22;13809;48.632;11.576;2022-07-23T05:46:01;22.90;41.20
26035;DHT22;13809;48.632;11.576;2022-07-23T05:51:05;23.00;40.30
26035;DHT22;13809;48.632;11.576;2022-07-23T05:56:10;23.10;40.50
26035;DHT22;13809;48.632;11.576;2022-07-23T06:01:13;23.10;41.20
26035;DHT22;13809;48.632;11.576;2022-07-23T06:06:16;23.10;40.70
26035;DHT22;13809;48.632;11.576;2022-07-23T06:11:21;23.20;40.80
26035;DHT22;13809;48.632;11.576;2022-07-23T06:16:24;23.30;41.60
26035;DHT22;13809;48.632;11.576;2022-07-23T06:21:27;23.30;41.00
26035;DHT22;13809;48.632;11.576;2022-07-23T06:26:50;23.40;40.90
26035;DHT22;13809;48.632;11.576;2022-07-23T06:31:53;23.40;41.80
26035;DHT22;13809;48.632;11.576;2022-07-23T06:36:56;23.50;40.90
26035;DHT22;13809;48.632;11.576;2022-07-23T06:42:02;23.60;41.50
26035;DHT22;13809;48.632;11.576;2022-07-23T06:47:06;23.80;41.90
26035;DHT22;13809;48.632;11.576;2022-07-23T06:52:10;24.00;41.40
26035;DHT22;13809;48.632;11.576;2022-07-23T06:57:14;24.20;41.30
26035;DHT22;13809;48.632;11.576;2022-07-23T07:02:18;24.40;41.90
26035;DHT22;13809;48.632;11.576;2022-07-23T07:07:21;24.50;40.70
26035;DHT22;13809;48.632;11.576;2022-07-23T07:12:26;24.60;40.50
26035;DHT22;13809;48.632;11.576;2022-07-23T07:17:29;24.70;41.10
26035;DHT22;13809;48.632;11.576;2022-07-23T07:22:32;24.70;40.60
26035;DHT22;13809;48.632;11.576;2022-07-23T07:27:37;24.80;40.70
26035;DHT22;13809;48.632;11.576;2022-07-23T07:32:41;24.90;40.80
26035;DHT22;13809;48.632;11.576;2022-07-23T07:38:00;24.90;40.90
26035;DHT22;13809;48.632;11.576;2022-07-23T07:43:05;24.90;40.80
26035;DHT22;13809;48.632;11.576;2022-07-23T07:48:08;24.90;40.80
26035;DHT22;13809;48.632;11.576;2022-07-23T07:53:11;25.00;40.60
26035;DHT22;13809;48.632;11.576;2022-07-23T07:58:16;25.10;40.40
26035;DHT22;13809;48.632;11.576;2022-07-23T08:03:19;25.10;40.40
26035;DHT22;13809;48.632;11.576;2022-07-23T08:08:23;25.10;40.00
26035;DHT22;13809;48.632;11.576;2022-07-23T08:13:28;25.20;39.90
26035;DHT22;13809;48.632;11.576;2022-07-23T08:18:31;25.20;40.10
26035;DHT22;13809;48.632;11.576;2022-07-23T08:23:34;25.30;39.90
26035;DHT22;13809;48.632;11.576;2022-07-23T08:28:38;25.40;39.70
26035;DHT22;13809;48.632;11.576;2022-07-23T08:33:42;25.40;40.20
26035;DHT22;13809;48.632;11.576;2022-07-23T08:38:45;25.40;39.50
26035;DHT22;13809;48.632;11.576;2022-07-23T08:43:49;25.50;39.90
26035;DHT22;13809;48.632;11.576;2022-07-23T08:48:53;25.60;40.10
26035;DHT22;13809;48.632;11.576;2022-07-23T08:53:57;25.60;39.70
26035;DHT22;13809;48.632;11.576;2022-07-23T08:59:03;25.70;39.70
26035;DHT22;13809;48.632;11.576;2022-07-23T09:04:06;25.80;39.50
26035;DHT22;13809;48.632;11.576;2022-07-23T09:09:17;25.80;39.20
26035;DHT22;13809;48.632;11.576;2022-07-23T09:14:36;25.90;39.00
26035;DHT22;13809;48.632;11.576;2022-07-23T09:19:40;26.00;39.40
26035;DHT22;13809;48.632;11.576;2022-07-23T09:25:09;26.00;39.50
26035;DHT22;13809;48.632;11.576;2022-07-23T09:30:14;26.20;39.50
26035;DHT22;13809;48.632;11.576;2022-07-23T09:35:17;26.40;39.20
26035;DHT22;13809;48.632;11.576;2022-07-23T09:40:20;26.60;38.90
26035;DHT22;13809;48.632;11.576;2022-07-23T09:45:25;26.80;38.70
26035;DHT22;13809;48.632;11.576;2022-07-23T09:50:28;27.10;38.80
26035;DHT22;13809;48.632;11.576;2022-07-23T09:55:32;27.40;38.70
26035;DHT22;13809;48.632;11.576;2022-07-23T10:00:40;27.70;38.40
26035;DHT22;13809;48.632;11.576;2022-07-23T10:05:44;27.90;36.90
26035;DHT22;13809;48.632;11.576;2022-07-23T10:10:48;28.20;36.50
26035;DHT22;13809;48.632;11.576;2022-07-23T10:15:54;28.40;36.30
26035;DHT22;13809;48.632;11.576;2022-07-23T10:20:59;28.60;35.60
26035;DHT22;13809;48.632;11.576;2022-07-23T10:26:10;28.90;35.40
26035;DHT22;13809;48.632;11.576;2022-07-23T10:31:31;29.10;33.60
26035;DHT22;13809;48.632;11.576;2022-07-23T10:37:01;29.40;33.80
26035;DHT22;13809;48.632;11.576;2022-07-23T10:42:09;29.50;33.80
26035;DHT22;13809;48.632;11.576;2022-07-23T10:47:25;29.70;33.50
26035;DHT22;13809;48.632;11.576;2022-07-23T10:53:18;29.90;32.10
26035;DHT22;13809;48.632;11.576;2022-07-23T10:58:25;30.00;33.20
26035;DHT22;13809;48.632;11.576;2022-07-23T11:03:56;30.10;32.30
26035;DHT22;13809;48.632;11.576;2022-07-23T11:09:25;30.30;31.70
26035;DHT22;13809;48.632;11.576;2022-07-23T11:14:59;30.40;32.10
26035;DHT22;13809;48.632;11.576;2022-07-23T11:20:20;30.50;31.90
26035;DHT22;13809;48.632;11.576;2022-07-23T11:25:35;30.70;32.00
26035;DHT22;13809;48.632;11.576;2022-07-23T11:30:41;30.80;30.70
26035;DHT22;13809;48.632;11.576;2022-07-23T11:35:47;30.90;30.20
26035;DHT22;13809;48.632;11.576;2022-07-23T11:40:54;30.90;29.50
26035;DHT22;13809;48.632;11.576;2022-07-23T11:45:59;30.80;29.70
26035;DHT22;13809;48.632;11.576;2022-07-23T11:51:04;30.70;30.10
26035;DHT22;13809;48.632;11.576;2022-07-23T11:56:09;30.70;29.90
26035;DHT22;13809;48.632;11.576;2022-07-23T12:01:13;30.90;30.00
26035;DHT22;13809;48.632;11.576;2022-07-23T12:06:22;31.00;29.80
26035;DHT22;13809;48.632;11.576;2022-07-23T12:11:25;31.20;28.80
26035;DHT22;13809;48.632;11.576;2022-07-23T12:16:29;31.30;29.70
26035;DHT22;13809;48.632;11.576;2022-07-23T12:21:34;31.30;29.40
26035;DHT22;13809;48.632;11.576;2022-07-23T12:26:37;31.40;28.50
26035;DHT22;13809;48.632;11.576;2022-07-23T12:31:41;31.50;28.10
26035;DHT22;13809;48.632;11.576;2022-07-23T12:36:45;31.50;28.10
26035;DHT22;13809;48.632;11.576;2022-07-23T12:41:53;31.60;27.50
26035;DHT22;13809;48.632;11.576;2022-07-23T12:46:58;31.70;27.30
26035;DHT22;13809;48.632;11.576;2022-07-23T12:52:15;31.80;27.40
26035;DHT22;13809;48.632;11.576;2022-07-23T12:57:44;31.80;27.00
26035;DHT22;13809;48.632;11.576;2022-07-23T13:02:48;31.90;26.90
26035;DHT22;13809;48.632;11.576;2022-07-23T13:07:52;32.00;26.90
26035;DHT22;13809;48.632;11.576;2022-07-23T13:12:55;32.00;26.60
26035;DHT22;13809;48.632;11.576;2022-07-23T13:17:58;32.00;26.40
26035;DHT22;13809;48.632;11.576;2022-07-23T13:23:06;31.90;26.50
26035;DHT22;13809;48.632;11.576;2022-07-23T13:28:09;31.70;26.20
26035;DHT22;13809;48.632;11.576;2022-07-23T13:33:12;31.60;26.50
26035;DHT22;13809;48.632;11.576;2022-07-23T13:38:18;31.60;26.90
26035;DHT22;13809;48.632;11.576;2022-07-23T13:43:23;31.50;26.80
26035;DHT22;13809;48.632;11.576;2022-07-23T13:48:27;31.50;26.90
26035;DHT22;13809;48.632;11.576;2022-07-23T13:53:32;31.50;26.90
26035;DHT22;13809;48.632;11.576;2022-07-23T13:58:35;31.50;26.50
26035;DHT22;13809;48.632;11.576;2022-07-23T14:03:38;31.50;26.40
26035;DHT22;13809;48.632;11.576;2022-07-23T14:08:44;31.30;26.60
26035;DHT22;13809;48.632;11.576;2022-07-23T14:13:48;31.30;26.90
26035;DHT22;13809;48.632;11.576;2022-07-23T14:18:53;31.20;27.10
26035;DHT22;13809;48.632;11.576;2022-07-23T14:23:58;31.10;26.80
26035;DHT22;13809;48.632;11.576;2022-07-23T14:29:01;31.00;26.80
26035;DHT22;13809;48.632;11.576;2022-07-23T14:34:05;30.70;27.40
26035;DHT22;13809;48.632;11.576;2022-07-23T14:39:10;30.50;28.20
26035;DHT22;13809;48.632;11.576;2022-07-23T14:44:14;30.30;29.20
26035;DHT22;13809;48.632;11.576;2022-07-23T14:49:18;30.00;28.90
26035;DHT22;13809;48.632;11.576;2022-07-23T14:54:22;29.70;29.80
26035;DHT22;13809;48.632;11.576;2022-07-23T14:59:28;29.40;31.10
26035;DHT22;13809;48.632;11.576;2022-07-23T15:04:32;29.20;31.00
26035;DHT22;13809;48.632;11.576;2022-07-23T15:09:57;29.00;31.40
26035;DHT22;13809;48.632;11.576;2022-07-23T15:15:00;29.00;32.20
26035;DHT22;13809;48.632;11.576;2022-07-23T15:20:11;29.00;32.10
26035;DHT22;13809;48.632;11.576;2022-07-23T15:25:20;29.00;32.60
26035;DHT22;13809;48.632;11.576;2022-07-23T15:30:24;29.00;33.50
26035;DHT22;13809;48.632;11.576;2022-07-23T15:35:30;29.00;33.10
26035;DHT22;13809;48.632;11.576;2022-07-23T15:40:35;29.00;33.70
26035;DHT22;13809;48.632;11.576;2022-07-23T15:45:39;29.10;33.60
26035;DHT22;13809;48.632;11.576;2022-07-23T15:50:42;29.20;33.20
26035;DHT22;13809;48.632;11.576;2022-07-23T15:55:48;29.30;33.40
26035;DHT22;13809;48.632;11.576;2022-07-23T16:00:51;29.40;33.70
26035;DHT22;13809;48.632;11.576;2022-07-23T16:05:55;29.40;33.10
26035;DHT22;13809;48.632;11.576;2022-07-23T16:11:00;29.50;33.10
26035;DHT22;13809;48.632;11.576;2022-07-23T16:16:04;29.60;33.90
26035;DHT22;13809;48.632;11.576;2022-07-23T16:21:08;29.60;33.20
26035;DHT22;13809;48.632;11.576;2022-07-23T16:26:18;29.70;33.40
26035;DHT22;13809;48.632;11.576;2022-07-23T16:31:22;29.70;31.00
26035;DHT22;13809;48.632;11.576;2022-07-23T16:36:28;29.80;31.50
26035;DHT22;13809;48.632;11.576;2022-07-23T16:41:32;29.90;30.70
26035;DHT22;13809;48.632;11.576;2022-07-23T16:46:35;29.90;31.50
26035;DHT22;13809;48.632;11.576;2022-07-23T16:51:39;29.90;31.50
26035;DHT22;13809;48.632;11.576;2022-07-23T16:56:44;30.00;31.50
26035;DHT22;13809;48.632;11.576;2022-07-23T17:01:47;29.90;31.50
26035;DHT22;13809;48.632;11.576;2022-07-23T17:06:50;29.90;31.50
26035;DHT22;13809;48.632;11.576;2022-07-23T17:11:55;29.80;31.40
26035;DHT22;13809;48.632;11.576;2022-07-23T17:16:58;29.80;31.40
26035;DHT22;13809;48.632;11.576;2022-07-23T17:22:02;29.70;31.90
26035;DHT22;13809;48.632;11.576;2022-07-23T17:27:06;29.70;32.00
26035;DHT22;13809;48.632;11.576;2022-07-23T17:32:10;29.60;31.80
26035;DHT22;13809;48.632;11.576;2022-07-23T17:37:13;29.50;31.60
26035;DHT22;13809;48.632;11.576;2022-07-23T17:42:18;29.50;31.60
26035;DHT22;13809;48.632;11.576;2022-07-23T17:47:21;29.50;31.70
26035;DHT22;13809;48.632;11.576;2022-07-23T17:52:24;29.40;31.70
26035;DHT22;13809;48.632;11.576;2022-07-23T17:57:29;29.30;31.80
26035;DHT22;13809;48.632;11.576;2022-07-23T18:02:32;29.30;32.20
26035;DHT22;13809;48.632;11.576;2022-07-23T18:07:35;29.30;32.10
26035;DHT22;13809;48.632;11.576;2022-07-23T18:12:41;29.20;32.10
26035;DHT22;13809;48.632;11.576;2022-07-23T18:17:44;29.20;32.30
26035;DHT22;13809;48.632;11.576;2022-07-23T18:22:48;29.20;32.20
26035;DHT22;13809;48.632;11.576;2022-07-23T18:27:52;29.20;32.60
26035;DHT22;13809;48.632;11.576;2022-07-23T18:32:56;29.20;33.60
26035;DHT22;13809;48.632;11.576;2022-07-23T18:38:05;29.20;33.00
26035;DHT22;13809;48.632;11.576;2022-07-23T18:43:10;29.20;33.00
26035;DHT22;13809;48.632;11.576;2022-07-23T18:48:13;29.20;33.30
26035;DHT22;13809;48.632;11.576;2022-07-23T18:53:17;29.10;33.00
26035;DHT22;13809;48.632;11.576;2022-07-23T18:58:22;29.00;33.00
26035;DHT22;13809;48.632;11.576;2022-07-23T19:03:25;28.90;33.70
26035;DHT22;13809;48.632;11.576;2022-07-23T19:08:28;28.80;33.50
26035;DHT22;13809;48.632;11.576;2022-07-23T19:13:34;28.60;33.50
26035;DHT22;13809;48.632;11.576;2022-07-23T19:18:39;28.40;34.20
26035;DHT22;13809;48.632;11.576;2022-07-23T19:23:42;28.30;34.20
26035;DHT22;13809;48.632;11.576;2022-07-23T19:28:48;28.20;34.30
26035;DHT22;13809;48.632;11.576;2022-07-23T19:33:53;28.10;35.10
26035;DHT22;13809;48.632;11.576;2022-07-23T19:38:57;28.10;34.80
26035;DHT22;13809;48.632;11.576;2022-07-23T19:44:02;28.00;35.00
26035;DHT22;13809;48.632;11.576;2022-07-23T19:49:06;27.90;35.60
26035;DHT22;13809;48.632;11.576;2022-07-23T19:54:10;27.70;35.10
26035;DHT22;13809;48.632;11.576;2022-07-23T19:59:14;27.50;35.20
26035;DHT22;13809;48.632;11.576;2022-07-23T20:04:18;27.30;35.90
26035;DHT22;13809;48.632;11.576;2022-07-23T20:09:21;27.20;36.10
26035;DHT22;13809;48.632;11.576;2022-07-23T20:14:26;27.20;36.10
26035;DHT22;13809;48.632;11.576;2022-07-23T20:19:29;27.20;36.50
26035;DHT22;13809;48.632;11.576;2022-07-23T20:24:32;27.10;36.00
26035;DHT22;13809;48.632;11.576;2022-07-23T20:29:37;27.10;36.10
26035;DHT22;13809;48.632;11.576;2022-07-23T20:34:41;27.00;36.50
26035;DHT22;13809;48.632;11.576;2022-07-23T20:39:44;26.90;36.00
26035;DHT22;13809;48.632;11.576;2022-07-23T20:44:49;26.90;36.00
26035;DHT22;13809;48.632;11.576;2022-07-23T20:49:53;26.90;36.50
26035;DHT22;13809;48.632;11.576;2022-07-23T20:54:59;26.80;36.00
26035;DHT22;13809;48.632;11.576;2022-07-23T21:00:07;26.80;36.30
26035;DHT22;13809;48.632;11.576;2022-07-23T21:05:11;26.80;37.20
26035;DHT22;13809;48.632;11.576;2022-07-23T21:10:14;26.70;36.60
26035;DHT22;13809;48.632;11.576;2022-07-23T21:15:19;26.60;36.70
26035;DHT22;13809;48.632;11.576;2022-07-23T21:20:22;26.60;37.20
26035;DHT22;13809;48.632;11.576;2022-07-23T21:25:25;26.60;36.90
26035;DHT22;13809;48.632;11.576;2022-07-23T21:30:30;26.50;37.00
26035;DHT22;13809;48.632;11.576;2022-07-23T21:35:34;26.50;37.40
26035;DHT22;13809;48.632;11.576;2022-07-23T21:40:37;26.40;37.10
26035;DHT22;13809;48.632;11.576;2022-07-23T21:45:41;26.30;36.70
26035;DHT22;13809;48.632;11.576;2022-07-23T21:50:45;26.30;37.10
26035;DHT22;13809;48.632;11.576;2022-07-23T21:55:48;26.20;36.80
26035;DHT22;13809;48.632;11.576;2022-07-23T22:00:55;26.10;36.90
26035;DHT22;13809;48.632;11.576;2022-07-23T22:05:59;26.00;37.70
26035;DHT22;13809;48.632;11.576;2022-07-23T22:11:02;26.00;37.10
26035;DHT22;13809;48.632;11.576;2022-07-23T22:16:07;25.80;37.00
26035;DHT22;13809;48.632;11.576;2022-07-23T22:21:11;25.60;37.30
26035;DHT22;13809;48.632;11.576;2022-07-23T22:26:34;25.40;37.20
26035;DHT22;13809;48.632;11.576;2022-07-23T22:31:39;25.30;37.50
26035;DHT22;13809;48.632;11.576;2022-07-23T22:36:42;25.20;37.90
26035;DHT22;13809;48.632;11.576;2022-07-23T22:41:45;25.20;37.50
26035;DHT22;13809;48.632;11.576;2022-07-23T22:46:50;25.10;37.50
26035;DHT22;13809;48.632;11.576;2022-07-23T22:51:53;24.90;38.10
26035;DHT22;13809;48.632;11.576;2022-07-23T22:56:57;24.80;37.80
26035;DHT22;13809;48.632;11.576;2022-07-23T23:02:02;24.70;38.20
26035;DHT22;13809;48.632;11.576;2022-07-23T23:07:05;24.50;38.90
26035;DHT22;13809;48.632;11.576;2022-07-23T23:12:08;24.50;38.80
26035;DHT22;13809;48.632;11.576;2022-07-23T23:17:13;24.50;39.00
26035;DHT22;13809;48.632;11.576;2022-07-23T23:22:16;24.50;39.50
26035;DHT22;13809;48.632;11.576;2022-07-23T23:27:19;24.50;39.10
26035;DHT22;13809;48.632;11.576;2022-07-23T23:32:24;24.50;39.00
26035;DHT22;13809;48.632;11.576;2022-07-23T23:37:27;24.50;39.40
26035;DHT22;13809;48.632;11.576;2022-07-23T23:42:36;24.40;39.00
26035;DHT22;13809;48.632;11.576;2022-07-23T23:47:40;24.40;39.10
26035;DHT22;13809;48.632;11.576;2022-07-23T23:52:44;24.40;39.40
26035;DHT22;13809;48.632;11.576;2022-07-23T23:57:47;24.40;38.90
